PWSweather.com
Personal Weather Stations
Station Observations
KCOWOODL7
North Of Dinosaur Center, Woodland Park, CO 80863

North Of Dinosaur CenterWoodland Park, CO 80863

Lat: 38.998056, Lon: -105.050833

Elevation: 8555

Station Type: Ambient WS-2095

Latest ConditionsUpdated 4:30:00 PM MDT Monday, Oct 15, 2018
Currently Today's Max Today's Min Today's Average
Temperature 35.8°F2.1°C 44.2°F6.8°C 10.2°F-12.1°C 25.9°F-3.4°C
Dew Point 2.6°F-16.3°C 15.3°F-9.3°C -4.9°F-20.5°C 5.3°F-14.8°C
Winds 2.7 mph ESE4.3 kmh ESE 4.7 mph -7.6 kmh - - 1.2 mph 1.9 kmh
Wind Gusts 6.0 mph9.7 kmh 10.7 mph17.2 kmh - -
Humidity 24% 85% 17% 49%
Pressure 30.10 in1019.3 mb 30.11 in1019.6 mb 30.03 in1016.9 mb -
Hour Temp Dew Point Humidity Winds Wind Gusts Pressure Precip Precip Rate Daily Precip Total
04:30 PM 35.8°F2.1°C 2.6°F-16.3°C 24% 2.7 mph ESE4.3 kmh ESE 6.0 mph9.7 kmh 30.10 in1019.3 mb 0.00 in0.0 mm 0.00 in0.0 mm 0.00 in0.0 mm
04:15 PM 37.2°F2.9°C 3.8°F-15.7°C 24% 2.7 mph SE4.3 kmh SE 7.4 mph11.9 kmh 30.09 in1019.0 mb 0.00 in0.0 mm 0.00 in0.0 mm 0.00 in0.0 mm
04:00 PM 38.1°F3.4°C 7.9°F-13.4°C 28% 2.7 mph SE4.3 kmh SE 5.4 mph8.7 kmh 30.10 in1019.3 mb 0.00 in0.0 mm 0.00 in0.0 mm 0.00 in0.0 mm
03:45 PM 38.5°F3.6°C 8.2°F-13.2°C 28% 2.0 mph SE3.2 kmh SE 6.0 mph9.7 kmh 30.09 in1019.0 mb 0.00 in0.0 mm 0.00 in0.0 mm 0.00 in0.0 mm
03:30 PM 39.2°F4.0°C 5.5°F-14.7°C 24% 3.4 mph SE5.5 kmh SE 6.7 mph10.8 kmh 30.10 in1019.3 mb 0.00 in0.0 mm 0.00 in0.0 mm 0.00 in0.0 mm
03:15 PM 37.8°F3.2°C 2.4°F-16.4°C 22% 4.0 mph SE6.4 kmh SE 6.0 mph9.7 kmh 30.09 in1019.0 mb 0.00 in0.0 mm 0.00 in0.0 mm 0.00 in0.0 mm
03:00 PM 38.8°F3.8°C 3.3°F-15.9°C 22% 4.0 mph SE6.4 kmh SE 6.0 mph9.7 kmh 30.09 in1019.0 mb 0.00 in0.0 mm 0.00 in0.0 mm 0.00 in0.0 mm
02:45 PM 44.2°F6.8°C 3.5°F-15.8°C 18% 1.3 mph NNW2.1 kmh NNW 4.0 mph6.4 kmh 30.09 in1019.0 mb 0.00 in0.0 mm 0.00 in0.0 mm 0.00 in0.0 mm
02:30 PM 44.2°F6.8°C 3.5°F-15.8°C 18% 1.3 mph SW2.1 kmh SW 6.7 mph10.8 kmh 30.08 in1018.6 mb 0.00 in0.0 mm 0.00 in0.0 mm 0.00 in0.0 mm
02:15 PM 41.9°F5.5°C 1.5°F-16.9°C 18% 0.7 mph E1.1 kmh E 6.0 mph9.7 kmh 30.08 in1018.6 mb 0.00 in0.0 mm 0.00 in0.0 mm 0.00 in0.0 mm
02:00 PM 38.7°F3.7°C 1.1°F-17.2°C 20% 3.4 mph W5.5 kmh W 6.0 mph9.7 kmh 30.08 in1018.6 mb 0.00 in0.0 mm 0.00 in0.0 mm 0.00 in0.0 mm
01:45 PM 39.9°F4.4°C 1.0°F-17.2°C 19% 4.7 mph WSW7.6 kmh WSW 6.7 mph10.8 kmh 30.09 in1019.0 mb 0.00 in0.0 mm 0.00 in0.0 mm 0.00 in0.0 mm
01:30 PM 38.5°F3.6°C 2.0°F-16.7°C 21% 1.3 mph W2.1 kmh W 5.4 mph8.7 kmh 30.09 in1019.0 mb 0.00 in0.0 mm 0.00 in0.0 mm 0.00 in0.0 mm
01:15 PM 37.4°F3.0°C 1.1°F-17.2°C 21% 2.7 mph WSW4.3 kmh WSW 6.0 mph9.7 kmh 30.09 in1019.0 mb 0.00 in0.0 mm 0.00 in0.0 mm 0.00 in0.0 mm
01:00 PM 35.6°F2.0°C -4.9°F-20.5°C 17% 2.7 mph NW4.3 kmh NW 7.4 mph11.9 kmh 30.09 in1019.0 mb 0.00 in0.0 mm 0.00 in0.0 mm 0.00 in0.0 mm
12:45 PM 37.2°F2.9°C -3.5°F-19.7°C 17% 0.7 mph W1.1 kmh W 5.4 mph8.7 kmh 30.09 in1019.0 mb 0.00 in0.0 mm 0.00 in0.0 mm 0.00 in0.0 mm
12:30 PM 35.2°F1.8°C -2.8°F-19.3°C 19% 0.7 mph W1.1 kmh W 5.4 mph8.7 kmh 30.09 in1019.0 mb 0.00 in0.0 mm 0.00 in0.0 mm 0.00 in0.0 mm
12:15 PM 34.0°F1.1°C -3.9°F-19.9°C 19% 2.7 mph WSW4.3 kmh WSW 10.7 mph17.2 kmh 30.09 in1019.0 mb 0.00 in0.0 mm 0.00 in0.0 mm 0.00 in0.0 mm
12:00 PM 33.6°F0.9°C -3.1°F-19.5°C 20% 2.0 mph WSW3.2 kmh WSW 6.7 mph10.8 kmh 30.10 in1019.3 mb 0.00 in0.0 mm 0.00 in0.0 mm 0.00 in0.0 mm
11:45 AM 31.6°F-0.2°C 3.1°F-16.1°C 29% 2.0 mph WSW3.2 kmh WSW 8.1 mph13.0 kmh 30.10 in1019.3 mb 0.00 in0.0 mm 0.00 in0.0 mm 0.00 in0.0 mm
11:30 AM 31.6°F-0.2°C 3.8°F-15.7°C 30% 3.4 mph WSW5.5 kmh WSW 8.1 mph13.0 kmh 30.10 in1019.3 mb 0.00 in0.0 mm 0.00 in0.0 mm 0.00 in0.0 mm
11:15 AM 33.1°F0.6°C 5.8°F-14.6°C 31% 2.0 mph WNW3.2 kmh WNW 6.7 mph10.8 kmh 30.11 in1019.6 mb 0.00 in0.0 mm 0.00 in0.0 mm 0.00 in0.0 mm
11:00 AM 31.3°F-0.4°C 4.2°F-15.4°C 31% Calm Calm 6.7 mph10.8 kmh 30.10 in1019.3 mb 0.00 in0.0 mm 0.00 in0.0 mm 0.00 in0.0 mm
10:45 AM 30.7°F-0.7°C 9.9°F-12.3°C 41% 1.3 mph WSW2.1 kmh WSW 6.7 mph10.8 kmh 30.10 in1019.3 mb 0.00 in0.0 mm 0.00 in0.0 mm 0.00 in0.0 mm
10:30 AM 28.4°F-2.0°C 9.8°F-12.3°C 45% 1.3 mph WSW2.1 kmh WSW 6.0 mph9.7 kmh 30.10 in1019.3 mb 0.00 in0.0 mm 0.00 in0.0 mm 0.00 in0.0 mm
10:15 AM 27.1°F-2.7°C 6.1°F-14.4°C 40% 1.3 mph SW2.1 kmh SW 5.4 mph8.7 kmh 30.09 in1019.0 mb 0.00 in0.0 mm 0.00 in0.0 mm 0.00 in0.0 mm
10:00 AM 27.5°F-2.5°C 2.9°F-16.2°C 34% 0.7 mph SW1.1 kmh SW 6.7 mph10.8 kmh 30.10 in1019.3 mb 0.00 in0.0 mm 0.00 in0.0 mm 0.00 in0.0 mm
09:45 AM 28.0°F-2.2°C 6.9°F-13.9°C 40% 1.3 mph SW2.1 kmh SW 4.7 mph7.6 kmh 30.10 in1019.3 mb 0.00 in0.0 mm 0.00 in0.0 mm 0.00 in0.0 mm
09:30 AM 28.6°F-1.9°C 15.3°F-9.3°C 57% 0.7 mph W1.1 kmh W 2.7 mph4.3 kmh 30.10 in1019.3 mb 0.00 in0.0 mm 0.00 in0.0 mm 0.00 in0.0 mm
09:15 AM 21.7°F-5.7°C 10.4°F-12.0°C 61% 0.7 mph W1.1 kmh W 2.0 mph3.2 kmh 30.10 in1019.3 mb 0.00 in0.0 mm 0.00 in0.0 mm 0.00 in0.0 mm
09:00 AM 19.8°F-6.8°C 9.3°F-12.6°C 63% Calm Calm 1.3 mph2.1 kmh 30.10 in1019.3 mb 0.00 in0.0 mm 0.00 in0.0 mm 0.00 in0.0 mm
08:45 AM 18.7°F-7.4°C 7.9°F-13.4°C 62% Calm Calm 3.4 mph5.5 kmh 30.10 in1019.3 mb 0.00 in0.0 mm 0.00 in0.0 mm 0.00 in0.0 mm
08:30 AM 17.4°F-8.1°C 9.4°F-12.6°C 70% 1.3 mph E2.1 kmh E 2.7 mph4.3 kmh 30.09 in1019.0 mb 0.00 in0.0 mm 0.00 in0.0 mm 0.00 in0.0 mm
08:15 AM 16.0°F-8.9°C 9.5°F-12.5°C 75% 0.7 mph E1.1 kmh E 1.3 mph2.1 kmh 30.08 in1018.6 mb 0.00 in0.0 mm 0.00 in0.0 mm 0.00 in0.0 mm
08:00 AM 13.5°F-10.3°C 7.9°F-13.4°C 78% Calm Calm -- 30.09 in1019.0 mb 0.00 in0.0 mm 0.00 in0.0 mm 0.00 in0.0 mm
07:36 AM 11.3°F-11.5°C 6.6°F-14.1°C 81% Calm Calm 0.7 mph1.1 kmh 30.08 in1018.6 mb 0.00 in0.0 mm 0.00 in0.0 mm 0.00 in0.0 mm
07:06 AM 10.2°F-12.1°C 4.2°F-15.4°C 76% Calm Calm -- 30.08 in1018.6 mb 0.00 in0.0 mm 0.00 in0.0 mm 0.00 in0.0 mm
06:36 AM 11.3°F-11.5°C 6.3°F-14.3°C 80% Calm Calm -- 30.06 in1017.9 mb 0.00 in0.0 mm 0.00 in0.0 mm 0.00 in0.0 mm
06:06 AM 11.1°F-11.6°C 6.7°F-14.1°C 82% Calm Calm -- 30.05 in1017.6 mb 0.00 in0.0 mm 0.00 in0.0 mm 0.00 in0.0 mm
05:36 AM 10.9°F-11.7°C 6.5°F-14.2°C 82% Calm Calm -- 30.05 in1017.6 mb 0.00 in0.0 mm 0.00 in0.0 mm 0.00 in0.0 mm
05:06 AM 11.5°F-11.4°C 7.1°F-13.8°C 82% Calm Calm -- 30.05 in1017.6 mb 0.00 in0.0 mm 0.00 in0.0 mm 0.00 in0.0 mm
04:36 AM 12.0°F-11.1°C 7.6°F-13.6°C 82% Calm Calm -- 30.04 in1017.3 mb 0.00 in0.0 mm 0.00 in0.0 mm 0.00 in0.0 mm
04:06 AM 13.3°F-10.4°C 8.3°F-13.2°C 80% Calm Calm -- 30.04 in1017.3 mb 0.00 in0.0 mm 0.00 in0.0 mm 0.00 in0.0 mm
03:36 AM 14.0°F-10.0°C 9.0°F-12.8°C 80% Calm Calm -- 30.04 in1017.3 mb 0.00 in0.0 mm 0.00 in0.0 mm 0.00 in0.0 mm
03:06 AM 15.3°F-9.3°C 10.8°F-11.8°C 82% Calm Calm 1.3 mph2.1 kmh 30.04 in1017.3 mb 0.00 in0.0 mm 0.00 in0.0 mm 0.00 in0.0 mm
02:36 AM 13.1°F-10.5°C 9.2°F-12.7°C 84% Calm Calm -- 30.04 in1017.3 mb 0.00 in0.0 mm 0.00 in0.0 mm 0.00 in0.0 mm
02:06 AM 10.6°F-11.9°C 7.0°F-13.9°C 85% Calm Calm -- 30.04 in1017.3 mb 0.00 in0.0 mm 0.00 in0.0 mm 0.00 in0.0 mm
01:36 AM 10.8°F-11.8°C 6.9°F-13.9°C 84% Calm Calm 1.3 mph2.1 kmh 30.04 in1017.3 mb 0.00 in0.0 mm 0.00 in0.0 mm 0.00 in0.0 mm
01:06 AM 12.0°F-11.1°C 7.6°F-13.6°C 82% Calm Calm 0.7 mph1.1 kmh 30.04 in1017.3 mb 0.00 in0.0 mm 0.00 in0.0 mm 0.00 in0.0 mm
12:36 AM 12.7°F-10.7°C 8.3°F-13.2°C 82% Calm Calm -- 30.03 in1016.9 mb 0.00 in0.0 mm 0.00 in0.0 mm 0.00 in0.0 mm
12:06 AM 11.8°F-11.2°C 7.7°F-13.5°C 83% Calm Calm -- 30.03 in1016.9 mb 0.00 in0.0 mm 0.00 in0.0 mm 0.00 in0.0 mm